X  Close Metar Aviation Weather Data     EINN Shannon Airport
Temperature
21°C Temperature
16°C Dewpoint
73% Humidity



Wind
24 KM/H
15 MPH
7 M/S
13 KTS



20°
NNE
Current Conditions

Partly Cloudy Partly Cloudy
Pressure 1009.92 (hPa) - 29.82 (inHg)
Visibility 6.2 (mile) - 10 (km)
Airport
Airport-code EINN

Location: Shannon Airport
Distance: 177 (km)

Metar:
EINN 241000Z 02013KT 9999 FEW019 21/16 Q1010 NOSIG

Time: 24-07-2021 11:00 IST